Time;durP1;ratioP1;P1;durP2;ratioP2;P2;SDS_P1;SDS_P2;PMS_P1;PMS_P2;Temp;Humidity;BMP_temperature;BMP_pressure;BME280_temperature;BME280_humidity;BME280_pressure;Samples;Min_cycle;Max_cycle;Signal;HPM_P1;HPM_P2
2023/08/01 00:00:11;;;;;;;3.28;1.85;;;18.40;99.90;;;;;;5113436;29;20308;-67
2023/08/01 00:02:46;;;;;;;4.10;2.13;;;18.40;99.90;;;;;;5111271;28;20039;-65
2023/08/01 00:05:19;;;;;;;2.10;1.90;;;18.40;99.90;;;;;;5115997;29;20053;-65
2023/08/01 00:07:52;;;;;;;2.58;1.90;;;18.30;99.90;;;;;;5084875;29;20027;-66
2023/08/01 00:10:26;;;;;;;2.05;1.80;;;18.30;99.90;;;;;;5101336;29;20053;-65
2023/08/01 00:12:57;;;;;;;2.45;2.20;;;18.10;99.90;;;;;;5117566;29;20027;-64
2023/08/01 00:15:28;;;;;;;3.83;2.10;;;18.00;99.90;;;;;;5083284;29;20371;-62
2023/08/01 00:18:02;;;;;;;2.10;1.80;;;18.00;99.90;;;;;;5110595;29;20041;-64
2023/08/01 00:20:35;;;;;;;2.92;1.90;;;18.00;99.90;;;;;;5119129;28;20058;-65
2023/08/01 00:23:12;;;;;;;2.70;2.15;;;17.90;99.90;;;;;;5133309;28;20045;-66
2023/08/01 00:25:43;;;;;;;4.28;1.90;;;17.80;99.90;;;;;;5072745;29;20497;-66
2023/08/01 00:28:17;;;;;;;2.70;2.05;;;17.70;99.90;;;;;;5098813;29;20054;-62
2023/08/01 00:30:48;;;;;;;2.72;2.05;;;17.70;99.90;;;;;;5104794;29;20043;-66
2023/08/01 00:33:23;;;;;;;2.22;1.90;;;17.70;99.90;;;;;;5100374;29;20031;-66
2023/08/01 00:35:55;;;;;;;2.85;2.30;;;17.70;99.90;;;;;;5099528;29;20035;-65
2023/08/01 00:38:29;;;;;;;3.38;2.20;;;17.70;99.90;;;;;;5100724;29;20508;-63
2023/08/01 00:41:03;;;;;;;2.30;2.10;;;17.60;99.90;;;;;;5100086;29;20039;-62
2023/08/01 00:43:34;;;;;;;2.40;2.20;;;17.50;99.90;;;;;;5085164;29;20100;-64
2023/08/01 00:46:09;;;;;;;2.55;2.25;;;17.50;99.90;;;;;;5109173;29;20660;-65
2023/08/01 00:48:43;;;;;;;3.30;2.50;;;17.50;99.90;;;;;;5117003;28;20047;-64
2023/08/01 00:51:15;;;;;;;2.28;1.92;;;17.50;99.90;;;;;;5135824;28;20342;-63
2023/08/01 00:53:47;;;;;;;2.53;2.03;;;17.40;99.90;;;;;;5134448;28;20035;-64
2023/08/01 00:56:18;;;;;;;3.80;2.38;;;17.40;99.90;;;;;;5128921;28;20027;-66
2023/08/01 00:58:50;;;;;;;3.65;2.35;;;17.50;99.90;;;;;;5119140;29;20019;-65
2023/08/01 01:01:28;;;;;;;2.40;2.13;;;17.50;99.90;;;;;;5184729;23;20058;-69
2023/08/01 01:04:00;;;;;;;2.25;1.90;;;17.60;99.90;;;;;;5216399;23;20050;-84
2023/08/01 01:06:34;;;;;;;2.53;2.20;;;17.60;99.90;;;;;;5147607;28;20033;-84
2023/08/01 01:09:19;;;;;;;3.67;2.30;;;17.70;99.90;;;;;;5147537;28;20215;-85
2023/08/01 01:11:50;;;;;;;2.97;2.17;;;17.90;99.90;;;;;;5163119;28;20216;-85
2023/08/01 01:14:21;;;;;;;3.15;2.38;;;17.80;99.90;;;;;;5179903;28;20032;-85
2023/08/01 01:16:52;;;;;;;2.72;1.92;;;17.80;99.90;;;;;;5179893;28;20236;-87
2023/08/01 01:19:24;;;;;;;2.38;2.10;;;17.70;99.90;;;;;;5179846;28;20033;-86
2023/08/01 01:22:07;;;;;;;2.22;2.03;;;17.70;99.90;;;;;;5179630;28;20036;-86
2023/08/01 01:24:44;;;;;;;3.53;2.33;;;17.70;99.90;;;;;;5179163;28;20320;-84
2023/08/01 01:27:22;;;;;;;2.67;2.35;;;17.70;99.90;;;;;;5147470;28;20038;-84
2023/08/01 01:29:58;;;;;;;2.15;1.95;;;17.90;75.50;;;;;;5147665;28;20029;-85
2023/08/01 01:32:30;;;;;;;2.63;2.08;;;18.10;87.50;;;;;;5147704;28;20030;-84
2023/08/01 01:38:29;;;;;;;3.38;2.00;;;18.30;1.00;;;;;;5162815;28;20026;-87
2023/08/01 01:41:00;;;;;;;3.25;2.05;;;18.20;45.70;;;;;;5179233;28;20035;-84
2023/08/01 01:43:37;;;;;;;2.50;1.83;;;18.10;98.80;;;;;;5146287;28;20034;-84
2023/08/01 01:46:09;;;;;;;2.45;2.00;;;18.10;49.20;;;;;;5162790;28;20044;-85
2023/08/01 01:48:42;;;;;;;2.55;1.75;;;18.00;94.10;;;;;;5178306;28;20332;-85
2023/08/01 01:51:14;;;;;;;1.95;1.70;;;18.00;89.10;;;;;;5178735;28;20040;-83
2023/08/01 01:53:45;;;;;;;2.75;1.70;;;18.10;78.30;;;;;;5179286;28;20036;-85
2023/08/01 01:56:16;;;;;;;3.22;2.22;;;18.10;74.60;;;;;;5178824;28;20033;-83
2023/08/01 01:58:48;;;;;;;1.75;1.60;;;18.20;79.00;;;;;;5178970;28;20041;-84
2023/08/01 02:01:19;;;;;;;2.63;1.77;;;18.30;96.70;;;;;;5161920;28;20109;-83
2023/08/01 02:03:52;;;;;;;2.35;1.80;;;18.40;1.00;;;;;;5130308;28;20053;-83
2023/08/01 02:09:51;;;;;;;1.90;1.70;;;18.40;1.00;;;;;;5162972;28;20041;-84
2023/08/01 02:12:23;;;;;;;2.78;1.80;;;18.50;1.00;;;;;;5178758;28;20197;-84
2023/08/01 02:18:24;;;;;;;2.30;1.60;;;18.40;1.00;;;;;;5161954;28;20324;-83
2023/08/01 02:20:58;;;;;;;2.35;1.52;;;18.40;1.00;;;;;;5178493;28;20034;-84
2023/08/01 02:23:29;;;;;;;1.73;1.58;;;18.40;1.00;;;;;;5178602;28;20327;-83
2023/08/01 02:29:28;;;;;;;2.15;1.90;;;18.50;1.00;;;;;;5161562;28;20038;-84
2023/08/01 02:31:59;;;;;;;1.88;1.70;;;18.50;1.00;;;;;;5145437;28;20040;-85
2023/08/01 02:34:33;;;;;;;4.50;1.80;;;18.50;1.00;;;;;;5177061;28;20034;-84
2023/08/01 02:37:05;;;;;;;2.03;1.83;;;18.60;1.00;;;;;;5161265;28;20044;-85
2023/08/01 02:39:36;;;;;;;2.60;1.92;;;18.50;1.00;;;;;;5161371;28;20036;-85
2023/08/01 02:42:10;;;;;;;2.47;2.00;;;18.50;1.00;;;;;;5178387;28;20034;-84
2023/08/01 02:44:42;;;;;;;2.00;1.70;;;18.50;1.00;;;;;;5178088;28;20034;-85
2023/08/01 02:47:13;;;;;;;2.20;1.75;;;18.60;1.00;;;;;;5129248;28;20046;-84
2023/08/01 02:49:46;;;;;;;1.63;1.50;;;18.50;1.00;;;;;;5178081;28;20037;-85
2023/08/01 02:52:17;;;;;;;2.22;1.85;;;18.50;1.00;;;;;;5178935;28;20026;-84
2023/08/01 02:54:49;;;;;;;3.78;1.95;;;18.60;1.00;;;;;;5177738;28;20312;-85
2023/08/01 02:57:21;;;;;;;2.55;2.03;;;18.60;1.00;;;;;;5178092;28;20227;-85
2023/08/01 02:59:54;;;;;;;3.58;1.70;;;18.60;1.00;;;;;;5160829;28;20034;-85
2023/08/01 03:02:27;;;;;;;3.33;1.55;;;18.70;1.00;;;;;;5177664;28;20038;-86
2023/08/01 03:08:26;;;;;;;2.33;2.08;;;18.60;1.00;;;;;;5160686;28;20048;-85
2023/08/01 03:10:58;;;;;;;2.50;1.88;;;18.60;1.00;;;;;;5178328;28;20281;-85
2023/08/01 03:13:29;;;;;;;2.28;1.92;;;18.50;1.00;;;;;;5178488;28;20040;-84
2023/08/01 03:16:01;;;;;;;2.20;2.00;;;18.50;1.00;;;;;;5178478;28;20032;-85
2023/08/01 03:18:32;;;;;;;1.98;1.58;;;18.50;1.00;;;;;;5178792;28;20034;-85
2023/08/01 03:21:06;;;;;;;2.28;2.08;;;18.50;1.00;;;;;;5181804;28;20045;-85
2023/08/01 03:23:40;;;;;;;2.20;2.00;;;18.60;1.00;;;;;;5160612;28;20040;-84
2023/08/01 03:26:11;;;;;;;2.33;1.63;;;18.60;1.00;;;;;;5177474;28;20030;-84
2023/08/01 03:28:43;;;;;;;2.35;1.73;;;18.50;1.00;;;;;;5176955;28;20030;-85
2023/08/01 03:31:15;;;;;;;2.92;1.63;;;18.50;1.00;;;;;;5177346;28;20037;-85
2023/08/01 03:33:50;;;;;;;2.60;2.05;;;18.50;1.00;;;;;;5177224;28;20036;-84
2023/08/01 03:39:33;;;;;;;2.97;1.80;;;18.50;1.00;;;;;;5177043;28;20206;-84
2023/08/01 03:42:04;;;;;;;2.45;2.25;;;18.50;1.00;;;;;;5177074;28;20041;-85
2023/08/01 03:44:38;;;;;;;2.17;1.67;;;18.50;1.00;;;;;;5176764;28;20093;-85
2023/08/01 03:47:12;;;;;;;3.17;2.30;;;18.60;1.00;;;;;;5144270;28;20034;-85
2023/08/01 03:49:45;;;;;;;1.83;1.65;;;18.60;1.00;;;;;;5176799;28;20026;-85
2023/08/01 03:52:21;;;;;;;1.93;1.77;;;18.70;1.00;;;;;;5160088;28;20030;-84
2023/08/01 03:54:54;;;;;;;2.55;1.80;;;18.70;1.00;;;;;;5160201;28;20342;-84
2023/08/01 03:57:33;;;;;;;2.30;1.90;;;18.70;1.00;;;;;;5160409;28;20227;-83
2023/08/01 04:00:13;;;;;;;3.30;1.90;;;18.80;1.00;;;;;;5144904;28;20034;-84
2023/08/01 04:02:47;;;;;;;3.05;1.95;;;18.80;1.00;;;;;;5159695;28;20065;-84
2023/08/01 04:05:20;;;;;;;2.40;1.90;;;18.90;5.20;;;;;;5176515;28;20040;-84
2023/08/01 04:07:54;;;;;;;1.85;1.70;;;18.90;1.00;;;;;;5159743;28;20052;-84
2023/08/01 04:10:31;;;;;;;4.00;1.75;;;18.90;1.00;;;;;;5176830;28;20030;-84
2023/08/01 04:13:02;;;;;;;2.47;1.92;;;18.80;47.60;;;;;;5144373;28;20524;-84
2023/08/01 04:15:34;;;;;;;1.90;1.70;;;18.70;47.20;;;;;;5176497;28;20052;-83
2023/08/01 04:18:08;;;;;;;2.10;1.90;;;18.60;99.90;;;;;;5175939;28;20030;-84
2023/08/01 04:20:39;;;;;;;2.33;1.70;;;18.50;99.90;;;;;;5175816;28;20034;-85
2023/08/01 04:23:13;;;;;;;3.80;2.35;;;18.50;99.90;;;;;;5175618;28;20030;-84
2023/08/01 04:25:45;;;;;;;3.08;2.13;;;18.50;99.90;;;;;;5175027;28;20052;-85
2023/08/01 04:28:16;;;;;;;3.97;2.22;;;18.50;99.90;;;;;;5142619;28;20034;-84
2023/08/01 04:30:53;;;;;;;2.30;2.10;;;18.50;99.90;;;;;;5174010;28;20026;-84
2023/08/01 04:33:24;;;;;;;2.38;1.98;;;18.50;99.90;;;;;;5158487;28;20026;-82
2023/08/01 04:35:57;;;;;;;2.42;2.15;;;18.50;99.90;;;;;;5157996;28;20030;-83
2023/08/01 04:38:36;;;;;;;2.13;1.98;;;18.60;99.90;;;;;;5175202;28;20041;-84
2023/08/01 04:41:08;;;;;;;5.30;2.22;;;18.70;99.90;;;;;;5174734;28;20030;-84
2023/08/01 04:43:42;;;;;;;2.65;2.00;;;18.70;99.90;;;;;;5175519;28;20060;-82
2023/08/01 04:46:16;;;;;;;2.63;2.28;;;18.80;99.90;;;;;;5175515;28;20030;-85
2023/08/01 04:48:47;;;;;;;2.78;1.73;;;18.80;99.90;;;;;;5175812;28;20320;-85
2023/08/01 04:51:21;;;;;;;2.45;1.88;;;19.00;40.40;;;;;;5175797;28;20030;-85
2023/08/01 04:53:52;;;;;;;2.65;2.10;;;19.10;1.00;;;;;;5159136;28;20030;-86
2023/08/01 04:56:25;;;;;;;3.08;2.15;;;19.30;1.00;;;;;;5175860;28;20330;-83
2023/08/01 04:59:01;;;;;;;2.20;1.90;;;19.50;1.00;;;;;;5158777;28;20214;-83
2023/08/01 05:01:33;;;;;;;2.47;2.10;;;19.60;1.00;;;;;;5176295;28;20032;-83
2023/08/01 05:04:07;;;;;;;1.90;1.67;;;19.70;1.00;;;;;;5143673;28;20049;-84
2023/08/01 05:06:41;;;;;;;1.83;1.60;;;19.80;1.00;;;;;;5144247;28;20374;-84
2023/08/01 05:09:15;;;;;;;3.50;1.73;;;19.90;1.00;;;;;;5176112;28;20036;-84
2023/08/01 05:11:46;;;;;;;1.98;1.50;;;20.00;1.00;;;;;;5176045;28;20030;-84
2023/08/01 05:14:20;;;;;;;1.83;1.55;;;20.10;99.90;;;;;;5143259;28;20031;-84
2023/08/01 05:16:56;;;;;;;2.15;1.88;;;20.20;1.00;;;;;;5175535;28;20033;-83
2023/08/01 05:19:27;;;;;;;1.63;1.52;;;20.40;99.90;;;;;;5143782;28;20041;-84
2023/08/01 05:21:59;;;;;;;2.10;1.60;;;20.50;99.90;;;;;;5159095;28;20030;-85
2023/08/01 05:24:32;;;;;;;3.63;1.98;;;20.50;99.90;;;;;;5143350;28;20038;-85
2023/08/01 05:27:04;;;;;;;2.72;2.22;;;20.50;99.90;;;;;;5143305;28;20064;-84
2023/08/01 05:29:38;;;;;;;2.55;1.90;;;20.40;99.90;;;;;;5144388;28;20090;-85
2023/08/01 05:32:10;;;;;;;;;;;20.40;99.90;;;;;;5159277;28;20042;-85
2023/08/01 05:34:41;;;;;;;2.17;1.63;;;20.50;99.90;;;;;;5159809;28;19913;-86
2023/08/01 05:37:12;;;;;;;2.63;1.60;;;20.60;99.90;;;;;;5177347;28;20032;-85
2023/08/01 05:39:46;;;;;;;3.25;1.55;;;20.80;99.90;;;;;;5178148;28;20034;-86
2023/08/01 05:42:17;;;;;;;4.60;2.05;;;20.80;1.00;;;;;;5178189;28;20036;-86
2023/08/01 05:44:48;;;;;;;3.63;1.77;;;20.90;1.00;;;;;;5181004;28;20033;-84
2023/08/01 05:47:22;;;;;;;3.22;2.08;;;21.00;1.00;;;;;;5180710;28;20044;-85
2023/08/01 05:49:53;;;;;;;2.30;1.70;;;21.20;1.00;;;;;;5179449;28;20034;-85
2023/08/01 05:52:30;;;;;;;1.80;1.60;;;21.30;99.90;;;;;;5179321;28;20034;-85
2023/08/01 05:55:01;;;;;;;2.28;2.03;;;21.50;6.20;;;;;;5162519;28;20220;-85
2023/08/01 05:57:32;;;;;;;3.22;2.05;;;21.70;1.00;;;;;;5179436;28;20034;-85
2023/08/01 06:00:06;;;;;;;2.28;1.67;;;21.90;1.00;;;;;;5179328;28;20036;-85
2023/08/01 06:02:37;;;;;;;4.45;1.98;;;22.10;1.00;;;;;;5162239;28;20229;-86
2023/08/01 06:05:17;;;;;;;2.80;2.00;;;22.20;99.90;;;;;;5179008;28;20034;-84
2023/08/01 06:07:56;;;;;;;2.85;1.55;;;22.50;99.90;;;;;;5146487;28;20030;-83
2023/08/01 06:10:27;;;;;;;1.92;1.65;;;22.60;99.90;;;;;;5162265;28;20026;-86
2023/08/01 06:12:58;;;;;;;1.48;1.38;;;22.70;27.10;;;;;;5178829;28;20323;-85
2023/08/01 06:15:32;;;;;;;2.10;1.67;;;22.80;1.00;;;;;;5177992;28;20201;-85
2023/08/01 06:18:06;;;;;;;2.30;2.10;;;22.70;1.00;;;;;;5178848;28;20037;-86
2023/08/01 06:20:37;;;;;;;;;;;22.70;1.00;;;;;;5146923;28;20350;-85
2023/08/01 06:23:11;;;;;;;2.08;1.70;;;22.60;1.00;;;;;;5178170;28;19969;-85
2023/08/01 06:25:45;;;;;;;2.15;1.90;;;22.50;1.00;;;;;;5161813;28;20037;-85
2023/08/01 06:28:16;;;;;;;2.03;1.38;;;22.50;1.00;;;;;;5161779;28;20030;-85
2023/08/01 06:30:51;;;;;;;2.55;1.80;;;22.50;1.00;;;;;;5161838;28;20031;-85
2023/08/01 06:33:24;;;;;;;;;;;22.40;1.00;;;;;;5162329;28;20027;-84
2023/08/01 06:36:01;;;;;;;2.03;1.83;;;22.30;1.00;;;;;;5161774;28;19908;-85
2023/08/01 06:38:32;;;;;;;2.35;1.83;;;22.30;1.00;;;;;;5161713;28;20037;-83
2023/08/01 06:41:04;;;;;;;2.83;1.70;;;22.30;1.00;;;;;;5161629;28;20045;-87
2023/08/01 06:43:38;;;;;;;2.30;1.75;;;22.10;1.00;;;;;;5161659;28;20224;-83
2023/08/01 06:46:09;;;;;;;3.60;2.10;;;22.00;1.00;;;;;;5161943;28;20037;-84
2023/08/01 06:48:45;;;;;;;2.95;2.22;;;21.90;1.00;;;;;;5162440;28;20041;-85
2023/08/01 06:51:16;;;;;;;2.88;1.67;;;21.70;99.90;;;;;;5161536;28;20097;-85
2023/08/01 06:53:48;;;;;;;2.25;2.00;;;21.60;99.90;;;;;;5160522;28;20347;-84
2023/08/01 06:56:19;;;;;;;2.30;1.83;;;21.60;1.00;;;;;;5161223;28;20030;-85
2023/08/01 06:58:50;;;;;;;2.20;2.00;;;21.60;1.00;;;;;;5161456;28;20034;-84
2023/08/01 07:01:22;;;;;;;2.83;1.73;;;21.60;1.00;;;;;;5160787;28;20101;-85
2023/08/01 07:03:53;;;;;;;2.30;1.95;;;21.80;1.00;;;;;;5161246;28;20049;-86
2023/08/01 07:06:27;;;;;;;2.90;1.75;;;22.10;99.90;;;;;;5160914;28;20038;-86
2023/08/01 07:09:01;;;;;;;3.38;2.25;;;22.40;1.00;;;;;;5161666;28;20034;-84
2023/08/01 07:11:32;;;;;;;2.22;1.85;;;22.70;1.00;;;;;;5161665;28;20026;-85
2023/08/01 07:14:04;;;;;;;309.88;157.27;;;23.00;1.00;;;;;;5160976;28;20340;-84
2023/08/01 07:16:37;;;;;;;3.33;3.03;;;22.80;1.00;;;;;;5161170;28;20342;-86
2023/08/01 07:19:09;;;;;;;261.48;38.78;;;22.60;1.00;;;;;;5161499;28;20038;-86
2023/08/01 07:21:40;;;;;;;80.68;74.68;;;22.60;1.00;;;;;;5161855;28;20026;-86
2023/08/01 07:24:13;;;;;;;3.50;3.20;;;22.50;1.00;;;;;;5129046;28;20206;-84
2023/08/01 07:26:47;;;;;;;30.58;28.13;;;22.20;1.00;;;;;;5160805;28;20042;-84
2023/08/01 07:29:18;;;;;;;3.13;2.83;;;22.00;1.00;;;;;;5160681;28;20030;-86
2023/08/01 07:31:51;;;;;;;4.20;1.85;;;22.00;1.00;;;;;;5160644;28;20029;-84
2023/08/01 07:34:24;;;;;;;5.40;2.70;;;22.10;1.00;;;;;;5160985;28;20030;-85
2023/08/01 07:36:56;;;;;;;3.17;1.80;;;22.30;1.00;;;;;;5160177;28;20052;-83
2023/08/01 07:39:27;;;;;;;4.68;1.80;;;22.40;99.90;;;;;;5161399;28;20034;-84
2023/08/01 07:41:58;;;;;;;2.20;1.83;;;22.30;1.00;;;;;;5160062;28;20040;-84
2023/08/01 07:44:31;;;;;;;12.82;11.57;;;22.40;1.00;;;;;;5159738;28;20036;-84
2023/08/01 07:47:05;;;;;;;11.57;7.78;;;22.50;1.00;;;;;;5160784;28;20030;-84
2023/08/01 07:49:41;;;;;;;14.43;10.57;;;22.60;1.00;;;;;;5160017;28;20041;-84
2023/08/01 07:52:15;;;;;;;4.75;1.80;;;22.70;99.90;;;;;;5160724;28;20033;-84
2023/08/01 07:54:53;;;;;;;2.45;1.92;;;22.40;99.90;;;;;;5144306;28;20347;-85
2023/08/01 07:57:24;;;;;;;38.90;36.28;;;22.20;1.00;;;;;;5160398;28;20030;-85
2023/08/01 08:00:01;;;;;;;3.28;2.28;;;22.20;1.00;;;;;;5160110;28;20038;-84
2023/08/01 08:02:33;;;;;;;2.72;2.08;;;22.30;1.00;;;;;;5159921;28;20038;-86
2023/08/01 08:05:05;;;;;;;3.15;1.83;;;22.40;1.00;;;;;;5159566;28;20041;-86
2023/08/01 08:07:46;;;;;;;2.20;2.00;;;22.40;78.80;;;;;;5160194;28;20034;-86
2023/08/01 08:10:20;;;;;;;3.72;2.08;;;22.40;46.00;;;;;;5159853;28;20030;-87
2023/08/01 08:12:52;;;;;;;2.13;1.92;;;22.50;1.00;;;;;;5160190;28;20037;-84
2023/08/01 08:15:24;;;;;;;1.88;1.50;;;22.30;15.30;;;;;;5159792;28;20240;-83
2023/08/01 08:18:00;;;;;;;2.30;1.60;;;22.30;99.90;;;;;;5144293;28;20041;-84
2023/08/01 08:20:40;;;;;;;2.97;1.88;;;22.20;99.90;;;;;;5144490;28;20036;-84
2023/08/01 08:23:15;;;;;;;2.03;1.83;;;22.30;1.00;;;;;;5159539;28;20030;-86
2023/08/01 08:25:47;;;;;;;4.25;1.90;;;22.30;1.00;;;;;;5159557;28;20036;-85
2023/08/01 08:28:34;;;;;;;1.65;1.42;;;22.30;99.90;;;;;;5160582;28;20196;-84
2023/08/01 08:31:06;;;;;;;2.25;1.90;;;22.40;21.10;;;;;;5159788;28;20038;-85
2023/08/01 08:33:39;;;;;;;1.83;1.52;;;22.30;45.40;;;;;;5160982;28;20030;-84
2023/08/01 08:36:11;;;;;;;2.22;2.03;;;22.40;1.00;;;;;;5159979;28;20026;-85
2023/08/01 08:38:42;;;;;;;2.20;1.40;;;22.20;1.00;;;;;;5159784;28;20034;-84
2023/08/01 08:41:27;;;;;;;3.00;1.80;;;22.20;1.00;;;;;;5159829;28;20030;-85
2023/08/01 08:44:09;;;;;;;3.00;1.60;;;22.20;1.00;;;;;;5159589;28;20034;-85
2023/08/01 08:46:43;;;;;;;3.42;1.60;;;22.40;1.00;;;;;;5159450;28;20328;-84
2023/08/01 08:49:15;;;;;;;2.17;1.77;;;22.50;1.00;;;;;;5159693;28;20206;-84
2023/08/01 08:51:50;;;;;;;2.67;1.50;;;22.60;99.90;;;;;;5159689;28;20026;-84
2023/08/01 08:54:22;;;;;;;2.88;2.05;;;22.60;20.40;;;;;;5159384;28;20037;-84
2023/08/01 08:56:55;;;;;;;2.45;1.65;;;22.80;1.00;;;;;;5159663;28;20026;-85
2023/08/01 08:59:29;;;;;;;2.80;1.52;;;23.00;1.00;;;;;;5158959;28;20034;-86
2023/08/01 09:02:03;;;;;;;3.55;1.67;;;23.40;1.00;;;;;;5159673;28;20037;-85
2023/08/01 09:04:35;;;;;;;2.13;1.60;;;23.60;1.00;;;;;;5159202;28;20034;-85
2023/08/01 09:07:11;;;;;;;1.92;1.30;;;23.70;1.00;;;;;;5159308;28;20041;-85
2023/08/01 09:09:45;;;;;;;2.80;1.65;;;23.80;1.00;;;;;;5160223;28;20030;-87
2023/08/01 09:12:16;;;;;;;2.30;1.70;;;23.90;1.00;;;;;;5160069;28;20026;-85
2023/08/01 09:14:56;;;;;;;1.63;1.40;;;23.80;1.00;;;;;;5143612;28;20030;-84
2023/08/01 09:17:30;;;;;;;2.17;1.75;;;23.80;1.00;;;;;;5161458;28;20036;-85
2023/08/01 09:20:09;;;;;;;2.75;1.73;;;23.70;1.00;;;;;;5163399;28;20034;-83
2023/08/01 09:22:44;;;;;;;2.58;1.70;;;23.50;1.00;;;;;;5164766;28;20036;-86
2023/08/01 09:28:57;;;;;;;2.38;1.83;;;23.30;1.00;;;;;;5162977;28;20034;-84
2023/08/01 09:31:37;;;;;;;3.00;2.00;;;23.10;1.00;;;;;;5163811;28;20106;-85
2023/08/01 09:34:26;;;;;;;2.22;1.58;;;22.90;99.90;;;;;;5163267;28;20317;-86
2023/08/01 09:37:02;;;;;;;2.33;2.05;;;22.70;99.90;;;;;;5163650;28;20132;-86
2023/08/01 09:39:33;;;;;;;3.67;2.97;;;22.30;1.00;;;;;;5163129;28;20034;-86
2023/08/01 09:42:06;;;;;;;4.13;3.08;;;22.00;1.00;;;;;;5162938;28;20034;-85
2023/08/01 09:44:40;;;;;;;4.68;3.30;;;21.80;1.00;;;;;;5162914;28;20347;-85
2023/08/01 09:47:11;;;;;;;8.18;3.53;;;21.60;1.00;;;;;;5162531;28;20034;-85
2023/08/01 09:49:50;;;;;;;5.05;4.18;;;21.40;1.00;;;;;;5162554;28;20026;-85
2023/08/01 09:52:30;;;;;;;6.22;3.90;;;21.30;99.90;;;;;;5162565;28;20045;-84
2023/08/01 09:55:02;;;;;;;5.13;4.03;;;21.20;99.90;;;;;;5162231;28;20026;-83
2023/08/01 09:57:43;;;;;;;6.15;3.58;;;21.10;99.90;;;;;;5162311;28;20094;-85
2023/08/01 10:00:15;;;;;;;7.03;3.97;;;20.90;99.90;;;;;;5162152;28;20038;-84
2023/08/01 10:02:49;;;;;;;4.55;3.45;;;20.90;99.90;;;;;;5162662;28;20046;-85
2023/08/01 10:05:21;;;;;;;6.47;4.10;;;20.70;99.90;;;;;;5163043;28;20030;-85
2023/08/01 10:07:54;;;;;;;3.90;3.25;;;20.60;99.90;;;;;;5163930;28;20037;-86
2023/08/01 10:10:27;;;;;;;4.07;3.67;;;20.30;99.90;;;;;;5163081;28;20030;-85
2023/08/01 10:13:06;;;;;;;3.97;3.05;;;20.10;99.90;;;;;;5162862;28;20037;-85
2023/08/01 10:15:38;;;;;;;5.15;3.40;;;19.80;99.90;;;;;;5162578;28;20033;-85
2023/08/01 10:18:13;;;;;;;4.55;3.42;;;19.70;99.90;;;;;;5162524;28;20223;-85
2023/08/01 10:20:45;;;;;;;4.53;3.47;;;19.80;99.90;;;;;;5163384;28;20041;-85
2023/08/01 10:23:17;;;;;;;4.40;3.67;;;19.90;99.90;;;;;;5163277;28;20040;-85
2023/08/01 10:25:52;;;;;;;6.82;4.10;;;19.90;99.90;;;;;;5162539;28;20109;-84
2023/08/01 10:28:35;;;;;;;4.65;3.45;;;19.80;99.90;;;;;;5160870;28;20040;-85
2023/08/01 10:31:18;;;;;;;5.13;3.50;;;19.90;99.90;;;;;;5162446;28;20026;-87
2023/08/01 10:33:50;;;;;;;4.82;3.28;;;20.00;99.90;;;;;;5162449;28;20052;-87
2023/08/01 10:36:27;;;;;;;4.67;3.67;;;20.00;99.90;;;;;;5162773;28;20346;-86
2023/08/01 10:39:00;;;;;;;5.88;3.85;;;20.10;99.90;;;;;;5146704;28;20256;-85
2023/08/01 10:41:39;;;;;;;8.23;3.50;;;19.90;99.90;;;;;;5162824;28;20040;-87
2023/08/01 10:44:15;;;;;;;4.40;3.28;;;19.80;99.90;;;;;;5161987;28;20113;-86
2023/08/01 10:47:01;;;;;;;4.70;3.40;;;19.80;99.90;;;;;;5162203;28;20032;-87
2023/08/01 10:49:37;;;;;;;5.95;3.38;;;19.80;99.90;;;;;;5145540;28;20034;-86
2023/08/01 10:52:29;;;;;;;4.65;2.85;;;19.80;99.90;;;;;;5145816;28;20033;-87
2023/08/01 10:55:07;;;;;;;3.95;2.90;;;19.70;99.90;;;;;;5146091;28;20033;-87
2023/08/01 10:57:54;;;;;;;5.05;3.10;;;19.70;99.90;;;;;;5162885;28;20030;-87
2023/08/01 11:00:30;;;;;;;7.03;3.28;;;19.80;99.90;;;;;;5146005;28;20337;-86
2023/08/01 11:03:03;;;;;;;3.35;2.65;;;19.70;99.90;;;;;;5161929;28;20046;-85
2023/08/01 11:09:14;;;;;;;4.32;2.65;;;19.60;99.90;;;;;;5182213;28;20040;-87
2023/08/01 11:11:52;;;;;;;3.20;2.42;;;19.50;99.90;;;;;;5148608;28;20321;-88
2023/08/01 11:14:28;;;;;;;3.75;2.70;;;19.20;99.90;;;;;;5161593;28;20030;-85
2023/08/01 11:17:02;;;;;;;2.63;2.15;;;19.20;99.90;;;;;;5161655;28;20026;-86
2023/08/01 11:19:33;;;;;;;435.48;63.67;;;19.20;99.90;;;;;;5162745;28;20236;-86
2023/08/01 11:22:10;;;;;;;4.47;2.42;;;19.30;99.90;;;;;;5161889;28;20060;-86
2023/08/01 11:24:49;;;;;;;3.53;2.20;;;19.30;99.90;;;;;;5162001;28;20046;-87
2023/08/01 11:27:25;;;;;;;2.42;1.70;;;19.20;99.90;;;;;;5162431;28;20042;-86
2023/08/01 11:29:58;;;;;;;4.82;2.35;;;19.20;99.90;;;;;;5161690;28;20034;-85
2023/08/01 11:32:38;;;;;;;3.03;1.98;;;19.00;99.90;;;;;;5162307;28;20030;-85
2023/08/01 11:35:18;;;;;;;3.63;2.03;;;18.90;99.90;;;;;;5161902;28;20229;-88
2023/08/01 11:37:56;;;;;;;2.85;2.40;;;18.70;99.90;;;;;;5161971;28;20044;-88
2023/08/01 11:40:27;;;;;;;35.20;7.18;;;18.50;99.90;;;;;;5161724;28;20112;-88
2023/08/01 11:43:01;;;;;;;40.83;4.70;;;18.40;99.90;;;;;;5161286;28;20035;-86
2023/08/01 11:45:33;;;;;;;3.45;2.35;;;18.10;99.90;;;;;;5161245;28;20034;-85
2023/08/01 11:48:04;;;;;;;7.80;4.32;;;18.10;99.90;;;;;;5145020;28;20034;-87
2023/08/01 11:50:38;;;;;;;156.23;22.35;;;18.20;99.90;;;;;;5161062;28;20031;-86
2023/08/01 11:53:21;;;;;;;49.05;28.98;;;18.50;99.90;;;;;;5161942;28;20324;-86
2023/08/01 11:55:56;;;;;;;95.60;38.83;;;18.90;99.90;;;;;;5161775;28;20022;-87
2023/08/01 11:58:31;;;;;;;3.55;2.60;;;19.20;99.90;;;;;;5161717;28;20030;-88
2023/08/01 12:01:17;;;;;;;5.38;4.80;;;19.50;99.90;;;;;;5163625;28;20037;-87
2023/08/01 12:03:51;;;;;;;3.22;2.17;;;19.50;99.90;;;;;;5164847;28;20342;-87
2023/08/01 12:06:24;;;;;;;2.92;2.13;;;19.60;99.90;;;;;;5162130;28;20030;-86
2023/08/01 12:09:12;;;;;;;3.30;2.05;;;19.60;99.90;;;;;;5145884;28;20034;-87
2023/08/01 12:11:45;;;;;;;4.38;2.40;;;19.60;99.90;;;;;;5145984;28;20036;-88
2023/08/01 12:14:19;;;;;;;3.90;2.03;;;19.40;99.90;;;;;;5161839;28;20034;-87
2023/08/01 12:16:50;;;;;;;217.73;194.63;;;19.20;99.90;;;;;;5145134;28;20034;-85
2023/08/01 12:19:22;;;;;;;13.93;12.93;;;19.00;99.90;;;;;;5161411;28;20026;-86
2023/08/01 12:21:53;;;;;;;11.10;10.38;;;18.90;99.90;;;;;;5160585;28;20034;-85
2023/08/01 12:24:24;;;;;;;337.17;319.70;;;18.80;99.90;;;;;;5160341;28;20030;-86
2023/08/01 12:26:59;;;;;;;32.05;30.40;;;18.90;99.90;;;;;;5160378;28;20036;-85
2023/08/01 12:29:33;;;;;;;1999.90;999.90;;;19.10;99.90;;;;;;5128689;28;20042;-85
2023/08/01 12:32:06;;;;;;;311.67;296.35;;;19.40;99.90;;;;;;5160495;28;20026;-86
2023/08/01 12:34:38;;;;;;;339.05;321.65;;;19.70;99.90;;;;;;5176123;28;20031;-85
2023/08/01 12:37:09;;;;;;;1999.90;999.90;;;19.80;99.90;;;;;;5160499;28;20064;-85
2023/08/01 12:39:41;;;;;;;1999.90;999.90;;;19.70;99.90;;;;;;5160747;28;20030;-86
2023/08/01 12:42:14;;;;;;;1999.90;999.90;;;19.70;99.90;;;;;;5160593;28;20034;-85
2023/08/01 12:44:49;;;;;;;1999.90;999.90;;;19.50;99.90;;;;;;5160080;28;20056;-88
2023/08/01 12:47:22;;;;;;;1999.90;999.90;;;19.20;99.90;;;;;;5160350;28;20030;-88
2023/08/01 12:49:55;;;;;;;1999.90;999.90;;;18.90;99.90;;;;;;5160092;28;20037;-87
2023/08/01 12:52:37;;;;;;;1999.90;999.90;;;18.60;99.90;;;;;;5164112;28;20036;-87
2023/08/01 12:55:11;;;;;;;1999.90;999.90;;;18.60;99.90;;;;;;5165864;28;20101;-85
2023/08/01 12:57:44;;;;;;;1999.90;999.90;;;18.70;99.90;;;;;;5168312;28;20084;-85
2023/08/01 13:00:15;;;;;;;1999.90;999.90;;;18.60;99.90;;;;;;5164406;28;20343;-88
2023/08/01 13:02:49;;;;;;;1999.90;999.90;;;18.60;99.90;;;;;;5164875;28;20236;-85
2023/08/01 13:05:22;;;;;;;1999.90;999.90;;;18.60;99.90;;;;;;5164759;28;20320;-87
2023/08/01 13:07:54;;;;;;;1999.90;999.90;;;18.60;99.90;;;;;;5165157;28;20048;-88
2023/08/01 13:10:25;;;;;;;90.90;35.35;;;18.50;99.90;;;;;;5164654;28;20030;-87
2023/08/01 13:12:59;;;;;;;1999.90;999.90;;;18.50;99.90;;;;;;5164383;28;20026;-86
2023/08/01 13:15:35;;;;;;;1999.90;999.90;;;18.40;99.90;;;;;;5182385;28;20037;-87
2023/08/01 13:18:12;;;;;;;1999.90;999.90;;;18.30;99.90;;;;;;5164451;28;20032;-88
2023/08/01 13:20:44;;;;;;;1999.90;999.90;;;18.30;99.90;;;;;;5166896;28;20056;-89
2023/08/01 13:23:21;;;;;;;1999.90;999.90;;;18.30;99.90;;;;;;5166331;28;20036;-87
2023/08/01 13:25:52;;;;;;;1999.90;999.90;;;18.00;99.90;;;;;;5148133;28;20040;-87
2023/08/01 13:28:24;;;;;;;1999.90;999.90;;;18.00;99.90;;;;;;5165960;28;20034;-87
2023/08/01 13:30:55;;;;;;;1999.90;999.90;;;18.10;99.90;;;;;;5165263;28;20035;-87
2023/08/01 13:33:30;;;;;;;1999.90;999.90;;;18.10;99.90;;;;;;5181606;28;20224;-87
2023/08/01 13:36:02;;;;;;;1999.90;999.90;;;18.10;99.90;;;;;;5163567;28;20254;-86
2023/08/01 13:38:34;;;;;;;1110.70;539.33;;;18.10;99.90;;;;;;5147926;28;20041;-87
2023/08/01 13:41:06;;;;;;;2.95;2.08;;;18.00;99.90;;;;;;5163820;28;20034;-87
2023/08/01 13:43:39;;;;;;;4.22;2.63;;;18.00;99.90;;;;;;5164445;28;20030;-87
2023/08/01 13:46:17;;;;;;;3.50;2.53;;;18.10;99.90;;;;;;5163842;28;20034;-87